createdAt,value
2019-01-08T00:02:28.659Z,37.67
2019-01-08T00:04:58.269Z,37.13
2019-01-08T00:07:28.198Z,42.03
2019-01-08T00:09:57.797Z,35.30
2019-01-08T00:12:27.506Z,39.80
2019-01-08T00:14:57.088Z,35.80
2019-01-08T00:17:26.667Z,35.30
2019-01-08T00:19:56.302Z,31.93
2019-01-08T00:22:28.382Z,33.10
2019-01-08T00:24:58.059Z,30.37
2019-01-08T00:27:28.348Z,29.20
2019-01-08T00:29:57.913Z,27.27
2019-01-08T00:32:27.429Z,28.60
2019-01-08T00:34:58.123Z,28.10
2019-01-08T00:37:27.673Z,25.90
2019-01-08T00:39:57.222Z,28.23
2019-01-08T00:42:26.782Z,24.37
2019-01-08T00:44:56.398Z,23.47
2019-01-08T00:47:26.027Z,21.60
2019-01-08T00:49:55.594Z,25.00
2019-01-08T00:52:25.163Z,23.83
2019-01-08T00:54:54.735Z,19.67
2019-01-08T00:57:24.323Z,17.93
2019-01-08T00:59:53.824Z,16.63
2019-01-08T01:02:23.338Z,16.03
2019-01-08T01:04:52.886Z,16.43
2019-01-08T01:07:22.489Z,15.97
2019-01-08T01:09:52.261Z,18.03
2019-01-08T01:12:21.858Z,17.73
2019-01-08T01:14:51.436Z,19.10
2019-01-08T01:17:21.054Z,24.83
2019-01-08T01:19:50.998Z,17.97
2019-01-08T01:22:20.596Z,20.03
2019-01-08T01:24:50.211Z,19.17
2019-01-08T01:27:19.814Z,18.43
2019-01-08T01:29:49.458Z,19.30
2019-01-08T01:32:19.168Z,21.20
2019-01-08T01:34:48.973Z,18.27
2019-01-08T01:37:18.457Z,17.13
2019-01-08T01:39:48.019Z,16.00
2019-01-08T01:42:17.719Z,15.33
2019-01-08T01:44:47.287Z,17.13
2019-01-08T01:47:16.862Z,15.80
2019-01-08T01:49:46.469Z,16.23
2019-01-08T01:52:16.089Z,13.60
2019-01-08T01:54:45.706Z,15.23
2019-01-08T01:57:15.258Z,16.50
2019-01-08T01:59:44.782Z,13.33
2019-01-08T02:02:14.306Z,15.57
2019-01-08T02:04:43.905Z,14.77
2019-01-08T02:07:14.094Z,12.10
2019-01-08T02:09:43.617Z,12.57
2019-01-08T02:12:13.295Z,11.47
2019-01-08T02:14:42.886Z,11.57
2019-01-08T02:17:12.471Z,12.13
2019-01-08T02:19:43.128Z,11.90
2019-01-08T02:22:12.691Z,11.20
2019-01-08T02:24:42.281Z,11.47
2019-01-08T02:27:13.102Z,13.50
2019-01-08T02:29:42.622Z,9.67
2019-01-08T02:32:12.132Z,9.77
2019-01-08T02:34:41.714Z,11.20
2019-01-08T02:37:11.427Z,11.17
2019-01-08T02:39:41.079Z,11.13
2019-01-08T02:42:10.806Z,12.43
2019-01-08T02:44:40.443Z,10.47
2019-01-08T02:47:10.080Z,10.70
2019-01-08T02:49:39.714Z,10.03
2019-01-08T02:52:09.271Z,9.13
2019-01-08T02:54:38.884Z,8.40
2019-01-08T02:57:08.569Z,7.77
2019-01-08T02:59:38.127Z,12.93
2019-01-08T03:02:07.791Z,8.57
2019-01-08T03:04:37.488Z,7.37
2019-01-08T03:07:07.138Z,10.33
2019-01-08T03:09:39.950Z,9.73
2019-01-08T03:12:09.562Z,11.07
2019-01-08T03:14:39.135Z,9.27
2019-01-08T03:17:08.787Z,8.73
2019-01-08T03:19:38.366Z,6.47
2019-01-08T03:22:08.008Z,6.83
2019-01-08T03:24:37.603Z,5.67
2019-01-08T03:27:07.387Z,8.13
2019-01-08T03:29:37.023Z,6.07
2019-01-08T03:32:06.665Z,5.80
2019-01-08T03:34:36.401Z,5.60
2019-01-08T03:37:06.050Z,5.20
2019-01-08T03:39:35.698Z,5.33
2019-01-08T03:42:05.365Z,7.17
2019-01-08T03:44:34.994Z,4.93
2019-01-08T03:47:04.512Z,5.10
2019-01-08T03:49:34.179Z,5.23
2019-01-08T03:52:03.770Z,5.10
2019-01-08T03:54:33.425Z,6.27
2019-01-08T03:57:03.069Z,5.20
2019-01-08T03:59:32.698Z,5.70
2019-01-08T04:02:02.262Z,5.40
2019-01-08T04:04:31.833Z,5.13
2019-01-08T04:07:04.160Z,4.17
2019-01-08T04:09:33.746Z,5.60
2019-01-08T04:12:04.755Z,5.13
2019-01-08T04:14:34.343Z,4.00
2019-01-08T04:17:03.975Z,3.87
2019-01-08T04:19:33.633Z,3.90
2019-01-08T04:22:03.265Z,5.37
2019-01-08T04:24:32.916Z,3.77
2019-01-08T04:27:02.538Z,5.40
2019-01-08T04:29:32.234Z,4.73
2019-01-08T04:32:01.761Z,5.07
2019-01-08T04:34:31.365Z,5.27
2019-01-08T04:37:00.953Z,4.83
2019-01-08T04:39:30.566Z,4.93
2019-01-08T04:42:00.121Z,5.80
2019-01-08T04:44:29.739Z,4.93
2019-01-08T04:46:59.472Z,4.50
2019-01-08T04:49:29.106Z,5.50
2019-01-08T04:51:58.729Z,4.77
2019-01-08T04:54:28.338Z,4.57
2019-01-08T04:56:58.008Z,4.20
2019-01-08T04:59:27.630Z,6.47
2019-01-08T05:01:57.246Z,7.93
2019-01-08T05:04:26.826Z,8.93
2019-01-08T05:06:56.427Z,12.43
2019-01-08T05:09:26.002Z,7.33
2019-01-08T05:11:55.630Z,3.90
2019-01-08T05:14:25.163Z,4.27
2019-01-08T05:16:54.857Z,3.83
2019-01-08T05:19:24.405Z,2.03
2019-01-08T05:21:54.048Z,2.97
2019-01-08T05:24:23.664Z,2.83
2019-01-08T05:26:53.250Z,4.37
2019-01-08T05:29:22.831Z,2.73
2019-01-08T05:31:52.415Z,3.77
2019-01-08T05:34:22.040Z,2.97
2019-01-08T05:36:51.760Z,2.70
2019-01-08T05:39:21.345Z,3.10
2019-01-08T05:41:50.999Z,2.73
2019-01-08T05:44:20.610Z,2.40
2019-01-08T05:46:50.235Z,1.43
2019-01-08T05:49:19.788Z,1.53
2019-01-08T05:51:49.445Z,1.70
2019-01-08T05:54:19.990Z,1.90
2019-01-08T05:56:49.621Z,1.73
2019-01-08T05:59:19.219Z,2.00
2019-01-08T06:01:48.787Z,2.70
2019-01-08T06:04:18.526Z,1.43
2019-01-08T06:06:48.103Z,2.87
2019-01-08T06:09:17.710Z,1.60
2019-01-08T06:11:47.817Z,1.40
2019-01-08T06:14:18.652Z,1.20
2019-01-08T06:16:48.203Z,1.20
2019-01-08T06:19:17.931Z,3.10
2019-01-08T06:21:47.593Z,1.40
2019-01-08T06:24:17.300Z,1.40
2019-01-08T06:26:46.980Z,1.70
2019-01-08T06:29:16.590Z,1.30
2019-01-08T06:31:46.190Z,3.43
2019-01-08T06:34:15.767Z,3.73
2019-01-08T06:36:45.467Z,5.23
2019-01-08T06:39:15.026Z,4.50
2019-01-08T06:41:44.721Z,8.77
2019-01-08T06:44:14.383Z,6.70
2019-01-08T06:46:43.917Z,5.33
2019-01-08T06:49:13.474Z,5.03
2019-01-08T06:51:43.970Z,4.70
2019-01-08T06:54:13.574Z,5.60
2019-01-08T06:56:43.195Z,7.27
2019-01-08T06:59:12.724Z,6.57
2019-01-08T07:01:42.318Z,5.47
2019-01-08T07:04:11.946Z,5.40
2019-01-08T07:06:43.249Z,7.77
2019-01-08T07:09:12.754Z,9.50
2019-01-08T07:11:44.475Z,10.03
2019-01-08T07:14:14.058Z,9.77
2019-01-08T07:16:43.730Z,6.23
2019-01-08T07:19:13.317Z,6.03
2019-01-08T07:21:42.861Z,7.93
2019-01-08T07:24:12.447Z,12.30
2019-01-08T07:26:42.067Z,7.40
2019-01-08T07:29:11.654Z,7.37
2019-01-08T07:31:41.231Z,6.87
2019-01-08T07:34:10.900Z,8.07
2019-01-08T07:36:40.491Z,6.03
2019-01-08T07:39:10.035Z,8.43
2019-01-08T07:41:39.632Z,6.87
2019-01-08T07:44:09.203Z,7.50
2019-01-08T07:46:40.233Z,9.10
2019-01-08T07:49:10.003Z,9.10
2019-01-08T07:51:39.548Z,9.43
2019-01-08T07:54:09.187Z,10.03
2019-01-08T07:56:38.759Z,10.17
2019-01-08T07:59:10.661Z,9.87
2019-01-08T08:01:40.178Z,14.77
2019-01-08T08:04:09.780Z,11.60
2019-01-08T08:06:39.361Z,7.27
2019-01-08T08:09:10.110Z,5.23
2019-01-08T08:11:39.779Z,4.07
2019-01-08T08:14:09.395Z,5.80
2019-01-08T08:16:41.339Z,8.83
2019-01-08T08:19:10.910Z,6.97
2019-01-08T08:21:40.522Z,6.73
2019-01-08T08:24:10.116Z,9.77
2019-01-08T08:26:39.713Z,5.57
2019-01-08T08:29:09.255Z,7.80
2019-01-08T08:31:38.814Z,5.87
2019-01-08T08:34:08.392Z,6.73
2019-01-08T08:36:37.967Z,9.33
2019-01-08T08:39:07.556Z,8.63
2019-01-08T08:41:37.139Z,18.00
2019-01-08T08:44:06.685Z,15.73
2019-01-08T08:46:36.334Z,12.47
2019-01-08T08:49:06.004Z,11.60
2019-01-08T08:51:35.666Z,12.00
2019-01-08T08:54:05.327Z,10.63
2019-01-08T08:56:35.173Z,10.00
2019-01-08T08:59:04.702Z,12.10
2019-01-08T09:01:34.262Z,11.20
2019-01-08T09:04:03.918Z,13.13
2019-01-08T09:06:33.513Z,10.57
2019-01-08T09:09:03.565Z,9.67
2019-01-08T09:11:33.142Z,8.77
2019-01-08T09:14:02.658Z,13.73
2019-01-08T09:16:32.139Z,20.00
2019-01-08T09:19:01.786Z,17.87
2019-01-08T09:21:31.365Z,20.27
2019-01-08T09:24:00.898Z,24.13
2019-01-08T09:26:30.540Z,11.90
2019-01-08T09:29:00.066Z,7.97
2019-01-08T09:31:29.671Z,9.13
2019-01-08T09:33:59.342Z,7.93
2019-01-08T09:36:28.887Z,7.97
2019-01-08T09:38:58.416Z,9.33
2019-01-08T09:41:28.056Z,10.17
2019-01-08T09:43:57.695Z,10.17
2019-01-08T09:46:27.344Z,7.43
2019-01-08T09:48:56.972Z,9.47
2019-01-08T09:51:26.542Z,16.70
2019-01-08T09:53:56.062Z,24.17
2019-01-08T09:56:25.626Z,12.50
2019-01-08T09:58:55.284Z,8.97
2019-01-08T10:01:24.879Z,12.20
2019-01-08T10:03:54.481Z,14.07
2019-01-08T10:06:24.023Z,8.80
2019-01-08T10:08:53.608Z,10.17
2019-01-08T10:11:24.154Z,11.83
2019-01-08T10:13:53.722Z,10.87
2019-01-08T10:16:23.322Z,8.60
2019-01-08T10:18:52.925Z,5.67
2019-01-08T10:21:22.450Z,7.97
2019-01-08T10:23:52.055Z,7.47
2019-01-08T10:26:21.602Z,7.40
2019-01-08T10:28:51.078Z,8.57
2019-01-08T10:31:22.782Z,9.00
2019-01-08T10:33:52.403Z,7.47
2019-01-08T10:36:21.974Z,6.30
2019-01-08T10:38:51.552Z,5.90
2019-01-08T10:41:21.162Z,8.50
2019-01-08T10:43:50.734Z,4.90
2019-01-08T10:46:20.447Z,6.20
2019-01-08T10:48:50.075Z,8.20
2019-01-08T10:51:19.647Z,8.37
2019-01-08T10:53:49.230Z,6.37
2019-01-08T10:56:18.852Z,8.83
2019-01-08T10:58:48.404Z,5.43
2019-01-08T11:01:18.019Z,7.53
2019-01-08T11:03:47.637Z,5.77
2019-01-08T11:06:17.242Z,5.90
2019-01-08T11:08:46.815Z,5.47
2019-01-08T11:11:16.399Z,5.83
2019-01-08T11:13:46.088Z,6.10
2019-01-08T11:16:15.675Z,7.93
2019-01-08T11:18:45.384Z,8.27
2019-01-08T11:21:17.903Z,10.27
2019-01-08T11:23:50.303Z,8.20
2019-01-08T11:26:19.929Z,7.13
2019-01-08T11:28:52.389Z,10.47
2019-01-08T11:31:22.368Z,11.53
2019-01-08T11:33:51.970Z,10.90
2019-01-08T11:36:21.518Z,9.73
2019-01-08T11:38:51.313Z,10.37
2019-01-08T11:41:20.882Z,7.50
2019-01-08T11:43:50.446Z,8.33
2019-01-08T11:46:20.083Z,10.97
2019-01-08T11:48:49.575Z,10.43
2019-01-08T11:51:19.082Z,13.93
2019-01-08T11:53:48.646Z,16.40
2019-01-08T11:56:19.169Z,14.10
2019-01-08T11:58:48.741Z,6.27
2019-01-08T12:01:18.376Z,5.63
2019-01-08T12:03:47.863Z,7.77
2019-01-08T12:06:17.531Z,6.60
2019-01-08T12:08:51.554Z,6.03
2019-01-08T12:11:21.149Z,4.83
2019-01-08T12:13:51.079Z,5.97
2019-01-08T12:16:20.698Z,7.60
2019-01-08T12:18:50.267Z,11.13
2019-01-08T12:21:19.922Z,10.37
2019-01-08T12:23:49.566Z,7.30
2019-01-08T12:26:19.185Z,8.57
2019-01-08T12:28:48.630Z,6.60
2019-01-08T12:31:18.174Z,9.37
2019-01-08T12:33:47.986Z,6.67
2019-01-08T12:36:17.558Z,6.87
2019-01-08T12:38:47.267Z,6.83
2019-01-08T12:41:16.763Z,5.53
2019-01-08T12:43:46.377Z,4.70
2019-01-08T12:46:15.907Z,5.50
2019-01-08T12:48:46.290Z,5.00
2019-01-08T12:51:15.916Z,7.27
2019-01-08T12:53:45.564Z,6.53
2019-01-08T12:56:15.576Z,6.50
2019-01-08T12:58:45.250Z,7.97
2019-01-08T13:01:14.917Z,6.73
2019-01-08T13:03:44.539Z,7.83
2019-01-08T13:06:14.066Z,9.43
2019-01-08T13:08:43.719Z,7.63
2019-01-08T13:11:14.924Z,9.23
2019-01-08T13:13:44.546Z,8.57
2019-01-08T13:16:14.153Z,5.80
2019-01-08T13:18:43.725Z,5.97
2019-01-08T13:21:13.254Z,5.87
2019-01-08T13:23:42.878Z,6.63
2019-01-08T13:26:12.432Z,7.63
2019-01-08T13:28:42.063Z,5.40
2019-01-08T13:31:11.687Z,7.00
2019-01-08T13:33:41.194Z,7.77
2019-01-08T13:36:10.938Z,9.27
2019-01-08T13:38:42.074Z,11.57
2019-01-08T13:41:12.869Z,9.03
2019-01-08T13:43:42.363Z,6.57
2019-01-08T13:46:11.969Z,5.40
2019-01-08T13:48:41.574Z,9.47
2019-01-08T13:51:11.107Z,6.57
2019-01-08T13:53:42.026Z,7.07
2019-01-08T13:56:11.589Z,8.40
2019-01-08T13:58:41.218Z,8.77
2019-01-08T14:01:11.924Z,7.97
2019-01-08T14:03:43.793Z,6.40
2019-01-08T14:06:13.327Z,5.77
2019-01-08T14:08:42.931Z,5.30
2019-01-08T14:11:12.455Z,5.50
2019-01-08T14:13:41.978Z,5.63
2019-01-08T14:16:11.519Z,9.20
2019-01-08T14:18:42.578Z,9.10
2019-01-08T14:21:12.149Z,9.30
2019-01-08T14:23:41.758Z,7.37
2019-01-08T14:26:11.362Z,10.37
2019-01-08T14:28:40.881Z,10.83
2019-01-08T14:31:12.195Z,9.80
2019-01-08T14:33:41.952Z,10.73
2019-01-08T14:36:11.458Z,9.17
2019-01-08T14:38:41.055Z,5.33
2019-01-08T14:41:10.621Z,7.40
2019-01-08T14:43:40.172Z,7.03
2019-01-08T14:46:09.838Z,10.43
2019-01-08T14:48:39.442Z,11.30
2019-01-08T14:51:09.015Z,5.40
2019-01-08T14:53:38.695Z,7.43
2019-01-08T14:56:08.255Z,7.53
2019-01-08T14:58:37.829Z,9.80
2019-01-08T15:01:07.408Z,7.63
2019-01-08T15:03:37.013Z,9.60
2019-01-08T15:06:06.569Z,5.87
2019-01-08T15:08:36.226Z,7.37
2019-01-08T15:11:05.843Z,6.20
2019-01-08T15:13:35.418Z,6.63
2019-01-08T15:16:05.075Z,6.43
2019-01-08T15:18:34.599Z,5.17
2019-01-08T15:21:04.144Z,8.53
2019-01-08T15:23:33.765Z,5.63
2019-01-08T15:26:03.327Z,8.27
2019-01-08T15:28:32.931Z,6.50
2019-01-08T15:31:02.536Z,6.53
2019-01-08T15:33:32.124Z,11.83
2019-01-08T15:36:01.828Z,8.77
2019-01-08T15:38:31.352Z,10.30
2019-01-08T15:41:00.902Z,9.00
2019-01-08T15:43:32.589Z,12.23
2019-01-08T15:46:02.170Z,11.07
2019-01-08T15:48:31.770Z,9.97
2019-01-08T15:51:01.327Z,13.30
2019-01-08T15:53:34.114Z,16.90
2019-01-08T15:56:03.652Z,13.73
2019-01-08T15:58:33.198Z,11.53
2019-01-08T16:01:02.860Z,10.53
2019-01-08T16:03:32.543Z,11.00
2019-01-08T16:06:02.130Z,13.10
2019-01-08T16:08:31.678Z,18.33
2019-01-08T16:11:01.280Z,17.90
2019-01-08T16:13:30.838Z,13.77
2019-01-08T16:16:00.507Z,14.27
2019-01-08T16:18:30.252Z,15.93
2019-01-08T16:20:59.790Z,16.03
2019-01-08T16:23:29.669Z,20.13
2019-01-08T16:25:59.518Z,16.60
2019-01-08T16:28:29.187Z,23.33
2019-01-08T16:30:58.790Z,17.03
2019-01-08T16:33:28.355Z,10.40
2019-01-08T16:35:57.991Z,7.90
2019-01-08T16:38:27.678Z,9.93
2019-01-08T16:40:57.367Z,9.13
2019-01-08T16:43:27.036Z,11.40
2019-01-08T16:45:58.320Z,10.80
2019-01-08T16:48:28.040Z,10.10
2019-01-08T16:50:59.185Z,10.03
2019-01-08T16:53:31.164Z,12.43
2019-01-08T16:56:00.848Z,24.37
2019-01-08T16:58:30.424Z,10.67
2019-01-08T17:01:00.051Z,8.33
2019-01-08T17:03:29.637Z,7.00
2019-01-08T17:06:02.255Z,7.63
2019-01-08T17:08:31.911Z,8.23
2019-01-08T17:11:01.611Z,9.23
2019-01-08T17:13:31.239Z,9.53
2019-01-08T17:16:01.036Z,7.30
2019-01-08T17:18:30.590Z,8.00
2019-01-08T17:21:00.128Z,6.60
2019-01-08T17:23:29.784Z,7.77
2019-01-08T17:25:59.327Z,28.83
2019-01-08T17:28:28.977Z,8.13
2019-01-08T17:30:58.713Z,8.23
2019-01-08T17:33:33.830Z,8.10
2019-01-08T17:35:59.735Z,8.10
2019-01-08T17:38:29.666Z,9.17
2019-01-08T17:40:59.198Z,6.53
2019-01-08T17:43:33.528Z,9.73
2019-01-08T17:46:00.058Z,12.53
2019-01-08T17:48:29.694Z,11.17
2019-01-08T17:50:59.239Z,10.73
2019-01-08T17:53:29.071Z,13.73
2019-01-08T17:55:58.721Z,17.87
2019-01-08T17:58:45.765Z,11.83
2019-01-08T18:01:27.359Z,10.77
2019-01-08T18:03:56.988Z,8.20
2019-01-08T18:06:26.608Z,11.27
2019-01-08T18:08:56.224Z,6.57
2019-01-08T18:11:26.006Z,5.00
2019-01-08T18:13:55.723Z,5.70
2019-01-08T18:16:25.373Z,5.67
2019-01-08T18:18:55.147Z,5.90
2019-01-08T18:21:24.855Z,5.27
2019-01-08T18:23:54.456Z,4.20
2019-01-08T18:26:24.140Z,6.17
2019-01-08T18:28:53.714Z,5.53
2019-01-08T18:31:23.265Z,4.63
2019-01-08T18:33:52.983Z,5.57
2019-01-08T18:36:22.787Z,4.43
2019-01-08T18:38:52.291Z,3.33
2019-01-08T18:41:25.004Z,3.53
2019-01-08T18:43:54.938Z,4.43
2019-01-08T18:46:26.255Z,5.33
2019-01-08T18:48:56.006Z,4.30
2019-01-08T18:51:27.558Z,4.83
2019-01-08T18:53:57.101Z,4.67
2019-01-08T18:56:26.741Z,5.57
2019-01-08T18:58:56.436Z,3.93
2019-01-08T19:01:25.970Z,5.30
2019-01-08T19:03:59.869Z,5.53
2019-01-08T19:06:26.903Z,6.53
2019-01-08T19:09:33.978Z,4.83
2019-01-08T19:12:06.596Z,4.60
2019-01-08T19:14:46.272Z,3.83
2019-01-08T19:17:15.806Z,5.47
2019-01-08T19:19:45.554Z,4.93
2019-01-08T19:22:15.238Z,4.80
2019-01-08T19:24:45.230Z,5.70
2019-01-08T19:27:26.153Z,5.60
2019-01-08T19:29:51.448Z,6.63
2019-01-08T19:32:22.300Z,5.43
2019-01-08T19:34:51.991Z,5.53
2019-01-08T19:37:21.636Z,9.40
2019-01-08T19:39:53.749Z,10.43
2019-01-08T19:42:25.457Z,9.43
2019-01-08T19:44:55.011Z,8.93
2019-01-08T19:47:24.663Z,5.90
2019-01-08T19:49:54.371Z,7.47
2019-01-08T19:52:23.994Z,10.37
2019-01-08T19:54:53.646Z,9.17
2019-01-08T19:57:23.345Z,8.50
2019-01-08T19:59:52.950Z,6.87
2019-01-08T20:02:22.689Z,8.93
2019-01-08T20:04:52.419Z,7.13
2019-01-08T20:07:21.970Z,10.43
2019-01-08T20:09:51.574Z,7.93
2019-01-08T20:12:21.212Z,8.00
2019-01-08T20:14:50.773Z,17.90
2019-01-08T20:17:20.410Z,12.83
2019-01-08T20:19:50.081Z,8.00
2019-01-08T20:22:19.842Z,6.97
2019-01-08T20:24:49.418Z,7.77
2019-01-08T20:27:19.146Z,8.73
2019-01-08T20:29:48.690Z,5.77
2019-01-08T20:32:18.239Z,9.57
2019-01-08T20:34:51.087Z,7.90
2019-01-08T20:37:20.773Z,9.40
2019-01-08T20:39:52.783Z,6.77
2019-01-08T20:42:22.461Z,7.03
2019-01-08T20:44:52.200Z,9.73
2019-01-08T20:47:21.758Z,10.10
2019-01-08T20:49:51.337Z,9.03
2019-01-08T20:52:21.030Z,6.63
2019-01-08T20:54:50.744Z,7.40
2019-01-08T20:57:20.411Z,8.17
2019-01-08T20:59:50.073Z,6.23
2019-01-08T21:02:19.703Z,8.43
2019-01-08T21:04:49.303Z,8.67
2019-01-08T21:07:18.892Z,7.03
2019-01-08T21:09:48.440Z,8.43
2019-01-08T21:12:17.975Z,7.10
2019-01-08T21:14:49.837Z,9.50
2019-01-08T21:17:19.410Z,10.30
2019-01-08T21:19:49.004Z,7.77
2019-01-08T21:22:18.572Z,9.40
2019-01-08T21:24:48.228Z,10.00
2019-01-08T21:27:17.874Z,10.13
2019-01-08T21:29:47.429Z,5.57
2019-01-08T21:32:16.986Z,7.30
2019-01-08T21:34:46.567Z,6.57
2019-01-08T21:37:16.443Z,8.23
2019-01-08T21:39:51.695Z,9.00
2019-01-08T21:42:21.286Z,8.63
2019-01-08T21:44:52.227Z,7.53
2019-01-08T21:47:21.795Z,8.07
2019-01-08T21:49:51.486Z,8.47
2019-01-08T21:52:21.434Z,6.53
2019-01-08T21:54:51.085Z,6.43
2019-01-08T21:57:20.977Z,9.27
2019-01-08T21:59:50.679Z,8.30
2019-01-08T22:02:20.980Z,6.07
2019-01-08T22:04:54.852Z,6.07
2019-01-08T22:07:25.399Z,4.73
2019-01-08T22:09:55.058Z,6.27
2019-01-08T22:12:24.707Z,5.87
2019-01-08T22:14:54.651Z,4.07
2019-01-08T22:17:25.031Z,4.00
2019-01-08T22:19:57.639Z,3.07
2019-01-08T22:22:58.602Z,2.00
2019-01-08T22:25:28.191Z,2.53
2019-01-08T22:28:04.240Z,2.73
2019-01-08T22:30:33.877Z,3.30
2019-01-08T22:33:04.316Z,4.40
2019-01-08T22:35:33.910Z,2.80
2019-01-08T22:38:03.700Z,3.17
2019-01-08T22:40:33.410Z,2.43
2019-01-08T22:43:03.093Z,2.33
2019-01-08T22:45:32.807Z,2.20
2019-01-08T22:48:08.873Z,3.93
2019-01-08T22:50:42.633Z,3.93
2019-01-08T22:53:12.361Z,3.00
2019-01-08T22:55:41.909Z,2.10
2019-01-08T22:58:11.494Z,3.57
2019-01-08T23:00:59.018Z,4.67
2019-01-08T23:03:28.552Z,2.70
2019-01-08T23:05:58.106Z,2.33
2019-01-08T23:08:27.823Z,4.23
2019-01-08T23:10:57.530Z,3.10
2019-01-08T23:13:27.467Z,2.60
2019-01-08T23:15:57.057Z,4.37
2019-01-08T23:18:26.683Z,4.17
2019-01-08T23:20:56.279Z,3.17
2019-01-08T23:23:25.934Z,5.03
2019-01-08T23:25:55.547Z,3.23
2019-01-08T23:28:25.154Z,3.60
2019-01-08T23:30:55.154Z,3.33
2019-01-08T23:33:24.776Z,4.20
2019-01-08T23:35:54.380Z,3.40
2019-01-08T23:38:24.073Z,4.10
2019-01-08T23:40:53.727Z,5.00
2019-01-08T23:43:23.380Z,5.70
2019-01-08T23:45:53.098Z,2.80
2019-01-08T23:48:22.743Z,3.37
2019-01-08T23:50:52.405Z,5.17
2019-01-08T23:53:30.453Z,2.80
2019-01-08T23:56:05.352Z,3.10
2019-01-08T23:58:35.111Z,3.47
